sensor_id;sensor_type;location;lat;lon;timestamp;P1;durP1;ratioP1;P2;durP2;ratioP2
14080;SDS011;7116;52.152;5.392;2023-07-24T00:00:08;5.00;;;3.50;;
14080;SDS011;7116;52.152;5.392;2023-07-24T00:02:33;5.30;;;4.32;;
14080;SDS011;7116;52.152;5.392;2023-07-24T00:04:58;5.50;;;3.70;;
14080;SDS011;7116;52.152;5.392;2023-07-24T00:07:23;5.57;;;3.60;;
14080;SDS011;7116;52.152;5.392;2023-07-24T00:09:50;5.07;;;3.67;;
14080;SDS011;7116;52.152;5.392;2023-07-24T00:12:15;6.72;;;4.20;;
14080;SDS011;7116;52.152;5.392;2023-07-24T00:14:40;5.67;;;4.13;;
14080;SDS011;7116;52.152;5.392;2023-07-24T00:17:05;5.83;;;3.87;;
14080;SDS011;7116;52.152;5.392;2023-07-24T00:19:33;7.00;;;3.97;;
14080;SDS011;7116;52.152;5.392;2023-07-24T00:21:58;5.07;;;3.83;;
14080;SDS011;7116;52.152;5.392;2023-07-24T00:24:23;5.53;;;4.07;;
14080;SDS011;7116;52.152;5.392;2023-07-24T00:26:49;5.33;;;3.97;;
14080;SDS011;7116;52.152;5.392;2023-07-24T00:29:14;8.17;;;4.30;;
14080;SDS011;7116;52.152;5.392;2023-07-24T00:31:41;4.18;;;3.20;;
14080;SDS011;7116;52.152;5.392;2023-07-24T00:34:08;4.67;;;3.80;;
14080;SDS011;7116;52.152;5.392;2023-07-24T00:36:34;5.55;;;4.03;;
14080;SDS011;7116;52.152;5.392;2023-07-24T00:38:59;7.03;;;4.07;;
14080;SDS011;7116;52.152;5.392;2023-07-24T00:41:24;5.20;;;3.33;;
14080;SDS011;7116;52.152;5.392;2023-07-24T00:43:49;4.83;;;3.70;;
14080;SDS011;7116;52.152;5.392;2023-07-24T00:46:15;5.20;;;3.57;;
14080;SDS011;7116;52.152;5.392;2023-07-24T00:48:40;4.67;;;3.40;;
14080;SDS011;7116;52.152;5.392;2023-07-24T00:51:05;5.17;;;3.60;;
14080;SDS011;7116;52.152;5.392;2023-07-24T00:53:33;5.93;;;3.67;;
14080;SDS011;7116;52.152;5.392;2023-07-24T00:56:01;5.37;;;3.63;;
14080;SDS011;7116;52.152;5.392;2023-07-24T00:58:28;5.30;;;3.42;;
14080;SDS011;7116;52.152;5.392;2023-07-24T01:00:56;4.43;;;3.08;;
14080;SDS011;7116;52.152;5.392;2023-07-24T01:03:22;5.40;;;4.20;;
14080;SDS011;7116;52.152;5.392;2023-07-24T01:05:50;4.63;;;3.50;;
14080;SDS011;7116;52.152;5.392;2023-07-24T01:08:15;7.00;;;4.30;;
14080;SDS011;7116;52.152;5.392;2023-07-24T01:10:41;5.23;;;3.37;;
14080;SDS011;7116;52.152;5.392;2023-07-24T01:13:17;4.50;;;3.63;;
14080;SDS011;7116;52.152;5.392;2023-07-24T01:15:48;5.15;;;3.35;;
14080;SDS011;7116;52.152;5.392;2023-07-24T01:18:15;4.78;;;3.50;;
14080;SDS011;7116;52.152;5.392;2023-07-24T01:20:48;5.13;;;3.70;;
14080;SDS011;7116;52.152;5.392;2023-07-24T01:25:51;6.03;;;3.50;;
14080;SDS011;7116;52.152;5.392;2023-07-24T01:28:18;5.30;;;3.70;;
14080;SDS011;7116;52.152;5.392;2023-07-24T01:30:43;5.13;;;4.03;;
14080;SDS011;7116;52.152;5.392;2023-07-24T01:33:17;4.43;;;3.17;;
14080;SDS011;7116;52.152;5.392;2023-07-24T01:35:42;7.03;;;4.23;;
14080;SDS011;7116;52.152;5.392;2023-07-24T01:38:09;6.57;;;3.97;;
14080;SDS011;7116;52.152;5.392;2023-07-24T01:40:37;6.32;;;4.03;;
14080;SDS011;7116;52.152;5.392;2023-07-24T01:43:02;5.20;;;3.72;;
14080;SDS011;7116;52.152;5.392;2023-07-24T01:45:30;5.15;;;3.50;;
14080;SDS011;7116;52.152;5.392;2023-07-24T01:47:56;5.53;;;3.57;;
14080;SDS011;7116;52.152;5.392;2023-07-24T01:50:22;5.07;;;3.57;;
14080;SDS011;7116;52.152;5.392;2023-07-24T01:52:47;5.63;;;3.70;;
14080;SDS011;7116;52.152;5.392;2023-07-24T01:55:12;5.30;;;3.97;;
14080;SDS011;7116;52.152;5.392;2023-07-24T01:57:37;5.33;;;3.57;;
14080;SDS011;7116;52.152;5.392;2023-07-24T02:00:04;4.47;;;3.23;;
14080;SDS011;7116;52.152;5.392;2023-07-24T02:02:30;5.28;;;3.40;;
14080;SDS011;7116;52.152;5.392;2023-07-24T02:04:55;5.47;;;4.07;;
14080;SDS011;7116;52.152;5.392;2023-07-24T02:07:20;4.27;;;3.63;;
14080;SDS011;7116;52.152;5.392;2023-07-24T02:09:45;4.67;;;3.53;;
14080;SDS011;7116;52.152;5.392;2023-07-24T02:12:10;5.90;;;3.70;;
14080;SDS011;7116;52.152;5.392;2023-07-24T02:14:36;4.93;;;3.73;;
14080;SDS011;7116;52.152;5.392;2023-07-24T02:17:01;6.53;;;3.87;;
14080;SDS011;7116;52.152;5.392;2023-07-24T02:19:26;4.80;;;3.77;;
14080;SDS011;7116;52.152;5.392;2023-07-24T02:21:51;4.53;;;3.90;;
14080;SDS011;7116;52.152;5.392;2023-07-24T02:24:16;6.67;;;4.37;;
14080;SDS011;7116;52.152;5.392;2023-07-24T02:26:42;4.23;;;3.63;;
14080;SDS011;7116;52.152;5.392;2023-07-24T02:29:07;4.37;;;3.80;;
14080;SDS011;7116;52.152;5.392;2023-07-24T02:31:32;5.40;;;3.83;;
14080;SDS011;7116;52.152;5.392;2023-07-24T02:33:57;4.73;;;3.43;;
14080;SDS011;7116;52.152;5.392;2023-07-24T02:36:22;3.80;;;3.23;;
14080;SDS011;7116;52.152;5.392;2023-07-24T02:38:48;5.17;;;3.93;;
14080;SDS011;7116;52.152;5.392;2023-07-24T02:41:13;7.20;;;3.73;;
14080;SDS011;7116;52.152;5.392;2023-07-24T02:43:38;5.27;;;3.37;;
14080;SDS011;7116;52.152;5.392;2023-07-24T02:46:03;4.83;;;3.53;;
14080;SDS011;7116;52.152;5.392;2023-07-24T02:48:29;5.03;;;3.40;;
14080;SDS011;7116;52.152;5.392;2023-07-24T02:50:54;9.67;;;8.77;;
14080;SDS011;7116;52.152;5.392;2023-07-24T02:53:19;7.40;;;3.37;;
14080;SDS011;7116;52.152;5.392;2023-07-24T02:55:44;5.37;;;4.07;;
14080;SDS011;7116;52.152;5.392;2023-07-24T02:58:13;4.70;;;3.60;;
14080;SDS011;7116;52.152;5.392;2023-07-24T03:00:39;5.22;;;3.40;;
14080;SDS011;7116;52.152;5.392;2023-07-24T03:03:04;4.93;;;3.77;;
14080;SDS011;7116;52.152;5.392;2023-07-24T03:05:29;4.70;;;3.83;;
14080;SDS011;7116;52.152;5.392;2023-07-24T03:07:55;5.23;;;3.60;;
14080;SDS011;7116;52.152;5.392;2023-07-24T03:10:20;5.37;;;4.20;;
14080;SDS011;7116;52.152;5.392;2023-07-24T03:12:47;7.20;;;4.00;;
14080;SDS011;7116;52.152;5.392;2023-07-24T03:15:13;7.13;;;4.00;;
14080;SDS011;7116;52.152;5.392;2023-07-24T03:17:38;4.57;;;3.33;;
14080;SDS011;7116;52.152;5.392;2023-07-24T03:20:13;4.80;;;3.60;;
14080;SDS011;7116;52.152;5.392;2023-07-24T03:22:40;5.35;;;3.92;;
14080;SDS011;7116;52.152;5.392;2023-07-24T03:25:05;3.85;;;3.20;;
14080;SDS011;7116;52.152;5.392;2023-07-24T03:27:30;6.00;;;3.60;;
14080;SDS011;7116;52.152;5.392;2023-07-24T03:29:55;6.30;;;4.17;;
14080;SDS011;7116;52.152;5.392;2023-07-24T03:32:21;5.50;;;4.20;;
14080;SDS011;7116;52.152;5.392;2023-07-24T03:34:46;5.23;;;4.37;;
14080;SDS011;7116;52.152;5.392;2023-07-24T03:37:11;6.57;;;4.30;;
14080;SDS011;7116;52.152;5.392;2023-07-24T03:39:36;4.57;;;3.60;;
14080;SDS011;7116;52.152;5.392;2023-07-24T03:42:01;12.27;;;3.93;;
14080;SDS011;7116;52.152;5.392;2023-07-24T03:44:27;5.63;;;4.60;;
14080;SDS011;7116;52.152;5.392;2023-07-24T03:46:57;5.63;;;3.65;;
14080;SDS011;7116;52.152;5.392;2023-07-24T03:49:22;5.13;;;3.92;;
14080;SDS011;7116;52.152;5.392;2023-07-24T03:51:47;5.63;;;4.17;;
14080;SDS011;7116;52.152;5.392;2023-07-24T03:54:13;6.00;;;4.67;;
14080;SDS011;7116;52.152;5.392;2023-07-24T03:56:38;9.03;;;4.13;;
14080;SDS011;7116;52.152;5.392;2023-07-24T03:59:05;9.90;;;3.97;;
14080;SDS011;7116;52.152;5.392;2023-07-24T04:01:30;6.78;;;4.13;;
14080;SDS011;7116;52.152;5.392;2023-07-24T04:03:55;5.40;;;3.70;;
14080;SDS011;7116;52.152;5.392;2023-07-24T04:06:20;5.83;;;3.90;;
14080;SDS011;7116;52.152;5.392;2023-07-24T04:08:46;5.45;;;4.15;;
14080;SDS011;7116;52.152;5.392;2023-07-24T04:11:11;6.13;;;4.00;;
14080;SDS011;7116;52.152;5.392;2023-07-24T04:13:36;6.17;;;4.10;;
14080;SDS011;7116;52.152;5.392;2023-07-24T04:16:02;6.10;;;4.13;;
14080;SDS011;7116;52.152;5.392;2023-07-24T04:18:27;6.33;;;4.90;;
14080;SDS011;7116;52.152;5.392;2023-07-24T04:20:52;5.73;;;4.17;;
14080;SDS011;7116;52.152;5.392;2023-07-24T04:23:17;5.40;;;4.10;;
14080;SDS011;7116;52.152;5.392;2023-07-24T04:25:43;6.40;;;4.27;;
14080;SDS011;7116;52.152;5.392;2023-07-24T04:28:08;7.50;;;4.73;;
14080;SDS011;7116;52.152;5.392;2023-07-24T04:30:33;5.87;;;4.17;;
14080;SDS011;7116;52.152;5.392;2023-07-24T04:33:03;7.90;;;4.82;;
14080;SDS011;7116;52.152;5.392;2023-07-24T04:35:28;7.32;;;5.03;;
14080;SDS011;7116;52.152;5.392;2023-07-24T04:37:53;7.65;;;3.90;;
14080;SDS011;7116;52.152;5.392;2023-07-24T04:40:39;5.70;;;4.37;;
14080;SDS011;7116;52.152;5.392;2023-07-24T04:43:04;6.70;;;4.70;;
14080;SDS011;7116;52.152;5.392;2023-07-24T04:45:32;6.30;;;4.68;;
14080;SDS011;7116;52.152;5.392;2023-07-24T04:47:57;8.67;;;4.50;;
14080;SDS011;7116;52.152;5.392;2023-07-24T04:50:22;7.47;;;4.60;;
14080;SDS011;7116;52.152;5.392;2023-07-24T04:52:47;6.47;;;4.33;;
14080;SDS011;7116;52.152;5.392;2023-07-24T04:55:13;8.07;;;5.20;;
14080;SDS011;7116;52.152;5.392;2023-07-24T05:06:53;7.55;;;4.60;;
14080;SDS011;7116;52.152;5.392;2023-07-24T05:09:56;7.97;;;5.43;;
14080;SDS011;7116;52.152;5.392;2023-07-24T05:15:48;7.15;;;5.20;;
14080;SDS011;7116;52.152;5.392;2023-07-24T05:21:49;6.95;;;5.18;;
14080;SDS011;7116;52.152;5.392;2023-07-24T05:24:17;7.53;;;5.40;;
14080;SDS011;7116;52.152;5.392;2023-07-24T05:50:50;7.05;;;5.18;;
14080;SDS011;7116;52.152;5.392;2023-07-24T05:53:35;8.37;;;5.07;;
14080;SDS011;7116;52.152;5.392;2023-07-24T05:56:01;9.77;;;5.47;;
14080;SDS011;7116;52.152;5.392;2023-07-24T05:58:27;7.07;;;4.78;;
14080;SDS011;7116;52.152;5.392;2023-07-24T06:00:52;8.10;;;4.70;;
14080;SDS011;7116;52.152;5.392;2023-07-24T06:03:17;8.93;;;5.40;;
14080;SDS011;7116;52.152;5.392;2023-07-24T06:05:43;8.07;;;5.00;;
14080;SDS011;7116;52.152;5.392;2023-07-24T06:11:02;6.80;;;4.20;;
14080;SDS011;7116;52.152;5.392;2023-07-24T06:31:59;8.18;;;4.65;;
14080;SDS011;7116;52.152;5.392;2023-07-24T06:40:55;8.38;;;4.45;;
14080;SDS011;7116;52.152;5.392;2023-07-24T06:49:57;8.93;;;4.27;;
14080;SDS011;7116;52.152;5.392;2023-07-24T06:56:06;7.72;;;4.45;;
14080;SDS011;7116;52.152;5.392;2023-07-24T06:59:08;6.22;;;3.92;;
14080;SDS011;7116;52.152;5.392;2023-07-24T07:08:06;9.43;;;4.53;;
14080;SDS011;7116;52.152;5.392;2023-07-24T07:16:41;7.50;;;4.93;;
14080;SDS011;7116;52.152;5.392;2023-07-24T07:25:28;8.77;;;4.25;;
14080;SDS011;7116;52.152;5.392;2023-07-24T07:28:17;7.90;;;4.40;;
14080;SDS011;7116;52.152;5.392;2023-07-24T07:40:09;8.15;;;4.40;;
14080;SDS011;7116;52.152;5.392;2023-07-24T07:49:19;6.93;;;3.77;;
14080;SDS011;7116;52.152;5.392;2023-07-24T07:55:17;8.32;;;4.80;;
14080;SDS011;7116;52.152;5.392;2023-07-24T07:58:10;7.07;;;4.72;;
14080;SDS011;7116;52.152;5.392;2023-07-24T08:09:36;6.40;;;3.67;;
14080;SDS011;7116;52.152;5.392;2023-07-24T08:18:36;9.63;;;4.40;;
14080;SDS011;7116;52.152;5.392;2023-07-24T08:24:27;9.70;;;5.32;;
14080;SDS011;7116;52.152;5.392;2023-07-24T08:30:00;10.57;;;4.50;;
14080;SDS011;7116;52.152;5.392;2023-07-24T08:39:04;11.05;;;4.55;;
14080;SDS011;7116;52.152;5.392;2023-07-24T08:41:39;7.28;;;4.43;;
14080;SDS011;7116;52.152;5.392;2023-07-24T08:59:29;7.88;;;3.88;;
14080;SDS011;7116;52.152;5.392;2023-07-24T09:01:55;7.83;;;4.23;;
14080;SDS011;7116;52.152;5.392;2023-07-24T09:16:28;7.07;;;4.63;;
14080;SDS011;7116;52.152;5.392;2023-07-24T09:22:47;15.32;;;4.88;;
14080;SDS011;7116;52.152;5.392;2023-07-24T09:28:50;8.40;;;4.75;;
14080;SDS011;7116;52.152;5.392;2023-07-24T09:37:49;7.20;;;4.30;;
14080;SDS011;7116;52.152;5.392;2023-07-24T09:40:14;7.40;;;4.33;;
14080;SDS011;7116;52.152;5.392;2023-07-24T09:42:50;9.13;;;5.32;;
14080;SDS011;7116;52.152;5.392;2023-07-24T09:48:51;8.07;;;4.87;;
14080;SDS011;7116;52.152;5.392;2023-07-24T09:54:27;8.55;;;4.90;;
14080;SDS011;7116;52.152;5.392;2023-07-24T10:06:44;7.43;;;4.43;;
14080;SDS011;7116;52.152;5.392;2023-07-24T10:09:11;9.00;;;4.50;;
14080;SDS011;7116;52.152;5.392;2023-07-24T10:24:12;7.97;;;3.95;;
14080;SDS011;7116;52.152;5.392;2023-07-24T10:27:15;7.82;;;4.50;;
14080;SDS011;7116;52.152;5.392;2023-07-24T10:30:03;6.80;;;3.47;;
14080;SDS011;7116;52.152;5.392;2023-07-24T10:38:54;8.57;;;4.43;;
14080;SDS011;7116;52.152;5.392;2023-07-24T10:41:38;6.75;;;3.90;;
14080;SDS011;7116;52.152;5.392;2023-07-24T10:47:30;8.50;;;3.90;;
14080;SDS011;7116;52.152;5.392;2023-07-24T10:50:15;6.72;;;3.72;;
14080;SDS011;7116;52.152;5.392;2023-07-24T10:59:07;6.72;;;3.45;;
14080;SDS011;7116;52.152;5.392;2023-07-24T11:02:11;6.37;;;3.97;;
14080;SDS011;7116;52.152;5.392;2023-07-24T11:05:16;6.32;;;3.88;;
14080;SDS011;7116;52.152;5.392;2023-07-24T11:14:15;6.30;;;4.47;;
14080;SDS011;7116;52.152;5.392;2023-07-24T11:17:12;7.77;;;3.77;;
14080;SDS011;7116;52.152;5.392;2023-07-24T11:22:52;9.43;;;4.25;;
14080;SDS011;7116;52.152;5.392;2023-07-24T11:25:37;9.43;;;4.50;;
14080;SDS011;7116;52.152;5.392;2023-07-24T11:28:38;7.32;;;3.92;;
14080;SDS011;7116;52.152;5.392;2023-07-24T11:34:29;10.05;;;3.85;;
14080;SDS011;7116;52.152;5.392;2023-07-24T11:37:00;11.43;;;4.10;;
14080;SDS011;7116;52.152;5.392;2023-07-24T11:39:28;7.30;;;4.40;;
14080;SDS011;7116;52.152;5.392;2023-07-24T11:41:53;6.27;;;3.83;;
14080;SDS011;7116;52.152;5.392;2023-07-24T11:44:24;10.48;;;4.80;;
14080;SDS011;7116;52.152;5.392;2023-07-24T11:46:52;5.73;;;3.73;;
14080;SDS011;7116;52.152;5.392;2023-07-24T11:49:34;7.85;;;4.05;;
14080;SDS011;7116;52.152;5.392;2023-07-24T11:52:06;10.43;;;3.83;;
14080;SDS011;7116;52.152;5.392;2023-07-24T11:54:34;8.98;;;3.80;;
14080;SDS011;7116;52.152;5.392;2023-07-24T11:57:02;11.52;;;3.97;;
14080;SDS011;7116;52.152;5.392;2023-07-24T11:59:36;7.43;;;3.97;;
14080;SDS011;7116;52.152;5.392;2023-07-24T12:02:04;11.30;;;5.27;;
14080;SDS011;7116;52.152;5.392;2023-07-24T12:04:30;7.07;;;4.15;;
14080;SDS011;7116;52.152;5.392;2023-07-24T12:06:55;9.95;;;5.13;;
14080;SDS011;7116;52.152;5.392;2023-07-24T12:09:21;10.03;;;5.13;;
14080;SDS011;7116;52.152;5.392;2023-07-24T12:11:46;8.20;;;4.27;;
14080;SDS011;7116;52.152;5.392;2023-07-24T12:14:13;9.05;;;4.30;;
14080;SDS011;7116;52.152;5.392;2023-07-24T12:16:38;7.03;;;4.22;;
14080;SDS011;7116;52.152;5.392;2023-07-24T12:19:03;7.60;;;4.50;;
14080;SDS011;7116;52.152;5.392;2023-07-24T12:21:29;6.47;;;3.90;;
14080;SDS011;7116;52.152;5.392;2023-07-24T12:23:54;10.47;;;4.50;;
14080;SDS011;7116;52.152;5.392;2023-07-24T12:26:19;5.27;;;3.50;;
14080;SDS011;7116;52.152;5.392;2023-07-24T12:28:44;8.93;;;4.37;;
14080;SDS011;7116;52.152;5.392;2023-07-24T12:31:09;7.03;;;4.00;;
14080;SDS011;7116;52.152;5.392;2023-07-24T12:33:36;8.33;;;4.27;;
14080;SDS011;7116;52.152;5.392;2023-07-24T12:36:01;7.63;;;3.90;;
14080;SDS011;7116;52.152;5.392;2023-07-24T12:38:28;8.55;;;4.43;;
14080;SDS011;7116;52.152;5.392;2023-07-24T12:40:54;9.57;;;3.87;;
14080;SDS011;7116;52.152;5.392;2023-07-24T12:43:22;9.75;;;4.22;;
14080;SDS011;7116;52.152;5.392;2023-07-24T12:45:47;6.40;;;3.47;;
14080;SDS011;7116;52.152;5.392;2023-07-24T12:48:12;6.93;;;3.80;;
14080;SDS011;7116;52.152;5.392;2023-07-24T12:50:37;10.60;;;4.23;;
14080;SDS011;7116;52.152;5.392;2023-07-24T12:53:03;8.90;;;4.00;;
14080;SDS011;7116;52.152;5.392;2023-07-24T12:55:28;6.37;;;3.37;;
14080;SDS011;7116;52.152;5.392;2023-07-24T12:58:13;8.65;;;3.10;;
14080;SDS011;7116;52.152;5.392;2023-07-24T13:00:46;4.63;;;2.63;;
14080;SDS011;7116;52.152;5.392;2023-07-24T13:03:14;6.30;;;2.63;;
14080;SDS011;7116;52.152;5.392;2023-07-24T13:05:39;4.77;;;2.30;;
14080;SDS011;7116;52.152;5.392;2023-07-24T13:08:05;3.07;;;2.23;;
14080;SDS011;7116;52.152;5.392;2023-07-24T13:16:23;4.50;;;2.60;;
14080;SDS011;7116;52.152;5.392;2023-07-24T13:18:49;4.93;;;3.23;;
14080;SDS011;7116;52.152;5.392;2023-07-24T13:21:14;7.43;;;3.57;;
14080;SDS011;7116;52.152;5.392;2023-07-24T13:23:39;5.07;;;3.40;;
14080;SDS011;7116;52.152;5.392;2023-07-24T13:26:05;5.63;;;3.90;;
14080;SDS011;7116;52.152;5.392;2023-07-24T13:28:32;7.15;;;3.80;;
14080;SDS011;7116;52.152;5.392;2023-07-24T13:30:57;8.50;;;4.17;;
14080;SDS011;7116;52.152;5.392;2023-07-24T13:33:23;7.60;;;4.80;;
14080;SDS011;7116;52.152;5.392;2023-07-24T13:35:48;6.40;;;4.50;;
14080;SDS011;7116;52.152;5.392;2023-07-24T13:38:16;8.10;;;4.22;;
14080;SDS011;7116;52.152;5.392;2023-07-24T13:40:41;8.17;;;4.67;;
14080;SDS011;7116;52.152;5.392;2023-07-24T13:43:13;6.80;;;4.50;;
14080;SDS011;7116;52.152;5.392;2023-07-24T13:45:39;8.50;;;4.90;;
14080;SDS011;7116;52.152;5.392;2023-07-24T13:48:06;7.20;;;4.75;;
14080;SDS011;7116;52.152;5.392;2023-07-24T13:50:32;9.43;;;4.78;;
14080;SDS011;7116;52.152;5.392;2023-07-24T13:53:02;5.65;;;4.35;;
14080;SDS011;7116;52.152;5.392;2023-07-24T13:55:27;8.73;;;5.10;;
14080;SDS011;7116;52.152;5.392;2023-07-24T13:57:52;8.87;;;4.47;;
14080;SDS011;7116;52.152;5.392;2023-07-24T14:00:18;9.60;;;4.97;;
14080;SDS011;7116;52.152;5.392;2023-07-24T14:02:43;8.67;;;5.13;;
14080;SDS011;7116;52.152;5.392;2023-07-24T14:05:08;6.20;;;4.35;;
14080;SDS011;7116;52.152;5.392;2023-07-24T14:07:36;8.60;;;5.20;;
14080;SDS011;7116;52.152;5.392;2023-07-24T14:10:01;7.50;;;4.57;;
14080;SDS011;7116;52.152;5.392;2023-07-24T14:12:26;9.30;;;4.93;;
14080;SDS011;7116;52.152;5.392;2023-07-24T14:14:51;9.03;;;4.63;;
14080;SDS011;7116;52.152;5.392;2023-07-24T14:17:17;8.03;;;4.40;;
14080;SDS011;7116;52.152;5.392;2023-07-24T14:19:44;5.93;;;3.60;;
14080;SDS011;7116;52.152;5.392;2023-07-24T14:22:09;7.60;;;3.40;;
14080;SDS011;7116;52.152;5.392;2023-07-24T14:24:34;8.07;;;3.37;;
14080;SDS011;7116;52.152;5.392;2023-07-24T14:26:59;4.93;;;3.10;;
14080;SDS011;7116;52.152;5.392;2023-07-24T14:29:24;6.77;;;2.50;;
14080;SDS011;7116;52.152;5.392;2023-07-24T14:31:57;6.45;;;3.05;;
14080;SDS011;7116;52.152;5.392;2023-07-24T14:34:23;6.47;;;2.70;;
14080;SDS011;7116;52.152;5.392;2023-07-24T14:36:48;5.23;;;2.63;;
14080;SDS011;7116;52.152;5.392;2023-07-24T14:39:13;6.50;;;3.17;;
14080;SDS011;7116;52.152;5.392;2023-07-24T14:41:38;5.10;;;2.57;;
14080;SDS011;7116;52.152;5.392;2023-07-24T14:44:03;4.97;;;2.93;;
14080;SDS011;7116;52.152;5.392;2023-07-24T14:46:29;4.47;;;2.50;;
14080;SDS011;7116;52.152;5.392;2023-07-24T14:48:56;5.72;;;2.67;;
14080;SDS011;7116;52.152;5.392;2023-07-24T14:51:22;10.93;;;8.40;;
14080;SDS011;7116;52.152;5.392;2023-07-24T14:53:48;5.90;;;2.87;;
14080;SDS011;7116;52.152;5.392;2023-07-24T14:56:13;5.97;;;2.50;;
14080;SDS011;7116;52.152;5.392;2023-07-24T14:58:39;4.20;;;2.50;;
14080;SDS011;7116;52.152;5.392;2023-07-24T15:01:07;9.77;;;2.60;;
14080;SDS011;7116;52.152;5.392;2023-07-24T15:03:32;7.07;;;2.47;;
14080;SDS011;7116;52.152;5.392;2023-07-24T15:05:57;5.67;;;2.63;;
14080;SDS011;7116;52.152;5.392;2023-07-24T15:08:28;8.25;;;2.50;;
14080;SDS011;7116;52.152;5.392;2023-07-24T15:10:56;6.23;;;2.47;;
14080;SDS011;7116;52.152;5.392;2023-07-24T15:13:21;6.00;;;2.65;;
14080;SDS011;7116;52.152;5.392;2023-07-24T15:15:46;5.13;;;2.40;;
14080;SDS011;7116;52.152;5.392;2023-07-24T15:18:12;5.43;;;2.57;;
14080;SDS011;7116;52.152;5.392;2023-07-24T15:20:41;7.63;;;3.33;;
14080;SDS011;7116;52.152;5.392;2023-07-24T15:23:09;5.80;;;2.50;;
14080;SDS011;7116;52.152;5.392;2023-07-24T15:25:34;6.67;;;2.57;;
14080;SDS011;7116;52.152;5.392;2023-07-24T15:31:17;4.10;;;1.92;;
14080;SDS011;7116;52.152;5.392;2023-07-24T15:33:55;5.65;;;2.22;;
14080;SDS011;7116;52.152;5.392;2023-07-24T15:36:30;5.30;;;2.08;;
14080;SDS011;7116;52.152;5.392;2023-07-24T15:38:58;5.93;;;2.50;;
14080;SDS011;7116;52.152;5.392;2023-07-24T15:47:49;3.33;;;1.67;;
14080;SDS011;7116;52.152;5.392;2023-07-24T15:50:24;6.88;;;2.30;;
14080;SDS011;7116;52.152;5.392;2023-07-24T15:59:12;4.50;;;2.15;;
14080;SDS011;7116;52.152;5.392;2023-07-24T16:08:03;3.72;;;1.80;;
14080;SDS011;7116;52.152;5.392;2023-07-24T16:10:59;2.73;;;2.00;;
14080;SDS011;7116;52.152;5.392;2023-07-24T16:17:06;3.75;;;1.88;;
14080;SDS011;7116;52.152;5.392;2023-07-24T16:25:42;2.30;;;1.57;;
14080;SDS011;7116;52.152;5.392;2023-07-24T16:28:39;3.30;;;2.10;;
14080;SDS011;7116;52.152;5.392;2023-07-24T16:31:25;3.47;;;2.00;;
14080;SDS011;7116;52.152;5.392;2023-07-24T16:37:17;3.50;;;1.85;;
14080;SDS011;7116;52.152;5.392;2023-07-24T16:39:42;4.23;;;2.33;;
14080;SDS011;7116;52.152;5.392;2023-07-24T16:42:25;3.83;;;1.90;;
14080;SDS011;7116;52.152;5.392;2023-07-24T16:44:50;4.57;;;2.50;;
14080;SDS011;7116;52.152;5.392;2023-07-24T16:47:15;17.83;;;2.33;;
14080;SDS011;7116;52.152;5.392;2023-07-24T16:49:48;28.60;;;3.90;;
14080;SDS011;7116;52.152;5.392;2023-07-24T16:52:18;7.93;;;2.35;;
14080;SDS011;7116;52.152;5.392;2023-07-24T16:54:43;6.43;;;2.20;;
14080;SDS011;7116;52.152;5.392;2023-07-24T16:57:11;5.60;;;2.17;;
14080;SDS011;7116;52.152;5.392;2023-07-24T16:59:39;4.50;;;2.20;;
14080;SDS011;7116;52.152;5.392;2023-07-24T17:02:13;8.38;;;2.78;;
14080;SDS011;7116;52.152;5.392;2023-07-24T17:04:38;4.40;;;2.17;;
14080;SDS011;7116;52.152;5.392;2023-07-24T17:07:24;3.35;;;2.30;;
14080;SDS011;7116;52.152;5.392;2023-07-24T17:09:52;5.32;;;2.15;;
14080;SDS011;7116;52.152;5.392;2023-07-24T17:12:17;6.40;;;2.30;;
14080;SDS011;7116;52.152;5.392;2023-07-24T17:18:04;8.32;;;2.40;;
14080;SDS011;7116;52.152;5.392;2023-07-24T17:20:34;4.03;;;2.25;;
14080;SDS011;7116;52.152;5.392;2023-07-24T17:38:19;4.55;;;2.00;;
14080;SDS011;7116;52.152;5.392;2023-07-24T17:40:52;5.35;;;2.03;;
14080;SDS011;7116;52.152;5.392;2023-07-24T17:49:43;3.10;;;2.33;;
14080;SDS011;7116;52.152;5.392;2023-07-24T17:52:27;4.47;;;2.20;;
14080;SDS011;7116;52.152;5.392;2023-07-24T17:55:15;4.43;;;2.40;;
14080;SDS011;7116;52.152;5.392;2023-07-24T17:57:42;7.17;;;2.27;;
14080;SDS011;7116;52.152;5.392;2023-07-24T18:00:17;4.10;;;2.47;;
14080;SDS011;7116;52.152;5.392;2023-07-24T18:02:49;3.25;;;2.30;;
14080;SDS011;7116;52.152;5.392;2023-07-24T18:05:17;5.05;;;3.15;;
14080;SDS011;7116;52.152;5.392;2023-07-24T18:07:55;5.32;;;1.90;;
14080;SDS011;7116;52.152;5.392;2023-07-24T18:10:24;4.67;;;2.50;;
14080;SDS011;7116;52.152;5.392;2023-07-24T18:13:16;3.38;;;1.77;;
14080;SDS011;7116;52.152;5.392;2023-07-24T18:28:20;7.68;;;2.53;;
14080;SDS011;7116;52.152;5.392;2023-07-24T18:31:12;4.60;;;2.50;;
14080;SDS011;7116;52.152;5.392;2023-07-24T18:45:49;5.22;;;2.58;;
14080;SDS011;7116;52.152;5.392;2023-07-24T18:48:24;6.88;;;2.20;;
14080;SDS011;7116;52.152;5.392;2023-07-24T18:51:03;4.45;;;2.13;;
14080;SDS011;7116;52.152;5.392;2023-07-24T18:53:38;9.10;;;2.63;;
14080;SDS011;7116;52.152;5.392;2023-07-24T18:56:16;4.63;;;2.45;;
14080;SDS011;7116;52.152;5.392;2023-07-24T19:02:07;4.43;;;2.40;;
14080;SDS011;7116;52.152;5.392;2023-07-24T19:04:43;7.30;;;2.08;;
14080;SDS011;7116;52.152;5.392;2023-07-24T19:07:11;5.93;;;2.40;;
14080;SDS011;7116;52.152;5.392;2023-07-24T19:09:48;7.37;;;1.87;;
14080;SDS011;7116;52.152;5.392;2023-07-24T19:12:13;3.83;;;2.17;;
14080;SDS011;7116;52.152;5.392;2023-07-24T19:14:49;6.63;;;2.05;;
14080;SDS011;7116;52.152;5.392;2023-07-24T19:17:45;8.00;;;2.25;;
14080;SDS011;7116;52.152;5.392;2023-07-24T19:26:45;4.75;;;2.10;;
14080;SDS011;7116;52.152;5.392;2023-07-24T19:32:26;4.40;;;2.10;;
14080;SDS011;7116;52.152;5.392;2023-07-24T19:35:02;7.85;;;2.33;;
14080;SDS011;7116;52.152;5.392;2023-07-24T19:41:11;5.30;;;2.17;;
14080;SDS011;7116;52.152;5.392;2023-07-24T19:46:54;5.97;;;2.15;;
14080;SDS011;7116;52.152;5.392;2023-07-24T19:52:48;4.50;;;2.43;;
14080;SDS011;7116;52.152;5.392;2023-07-24T20:07:36;8.40;;;1.83;;
14080;SDS011;7116;52.152;5.392;2023-07-24T20:10:01;7.23;;;2.40;;
14080;SDS011;7116;52.152;5.392;2023-07-24T20:12:29;4.65;;;1.90;;
14080;SDS011;7116;52.152;5.392;2023-07-24T20:15:16;4.77;;;2.57;;
14080;SDS011;7116;52.152;5.392;2023-07-24T20:27:24;4.55;;;2.30;;
14080;SDS011;7116;52.152;5.392;2023-07-24T20:30:34;5.13;;;2.80;;
14080;SDS011;7116;52.152;5.392;2023-07-24T20:36:30;8.70;;;2.92;;
14080;SDS011;7116;52.152;5.392;2023-07-24T20:48:27;8.40;;;2.40;;
14080;SDS011;7116;52.152;5.392;2023-07-24T21:06:13;4.70;;;2.35;;
14080;SDS011;7116;52.152;5.392;2023-07-24T21:15:10;8.33;;;3.00;;
14080;SDS011;7116;52.152;5.392;2023-07-24T21:17:46;9.45;;;2.85;;
14080;SDS011;7116;52.152;5.392;2023-07-24T21:29:47;7.13;;;2.80;;
14080;SDS011;7116;52.152;5.392;2023-07-24T21:35:32;6.57;;;3.15;;
14080;SDS011;7116;52.152;5.392;2023-07-24T21:38:19;6.85;;;2.42;;
14080;SDS011;7116;52.152;5.392;2023-07-24T22:02:41;6.93;;;2.95;;
14080;SDS011;7116;52.152;5.392;2023-07-24T22:08:23;6.32;;;3.00;;
14080;SDS011;7116;52.152;5.392;2023-07-24T22:10:51;7.87;;;3.00;;
14080;SDS011;7116;52.152;5.392;2023-07-24T22:13:25;5.22;;;2.53;;
14080;SDS011;7116;52.152;5.392;2023-07-24T22:22:13;9.43;;;2.90;;
14080;SDS011;7116;52.152;5.392;2023-07-24T22:27:56;6.00;;;3.22;;
14080;SDS011;7116;52.152;5.392;2023-07-24T22:30:34;19.73;;;3.10;;
14080;SDS011;7116;52.152;5.392;2023-07-24T22:39:38;8.63;;;3.53;;
14080;SDS011;7116;52.152;5.392;2023-07-24T22:42:24;6.72;;;2.55;;
14080;SDS011;7116;52.152;5.392;2023-07-24T22:45:13;5.68;;;2.60;;
14080;SDS011;7116;52.152;5.392;2023-07-24T22:48:05;6.17;;;2.83;;
14080;SDS011;7116;52.152;5.392;2023-07-24T22:50:40;7.40;;;2.53;;
14080;SDS011;7116;52.152;5.392;2023-07-24T23:02:57;6.00;;;2.50;;
14080;SDS011;7116;52.152;5.392;2023-07-24T23:27:23;11.43;;;3.22;;
14080;SDS011;7116;52.152;5.392;2023-07-24T23:30:08;6.75;;;3.65;;
14080;SDS011;7116;52.152;5.392;2023-07-24T23:32:54;6.13;;;3.50;;
14080;SDS011;7116;52.152;5.392;2023-07-24T23:44:46;8.77;;;3.10;;
14080;SDS011;7116;52.152;5.392;2023-07-24T23:53:03;5.80;;;3.00;;
